Cantil, California
Current Conditions -  °F | °C
As of 11:55 AM on Wednesday 26 Nov 2014 (Local Time) from KMHV Reporting Station
Clear Clear  
Wind Chill: 66°   Ceiling: Unl
Heat Index: 66°   Visibility: 10mi
Dew Point: 12°   Wind: 0mph
Humidity: 12%   Direction: NA
Pressure: 30.37"   Gusts: NA
Location:  35.31°N, 117.97°W
Report Text: KMHV 261955Z AUTO 00000KT 10SM CLR 19/M11 A3037 RMK AO1
Loading
Personal Weather Stations






























Interactive Weather Map New forecast layout! Learn more

10-Day Weather Forecast

Advertisements
Track Severe Weather on mobile